createdAt,value
2023-05-10T00:00:49.826Z,2.50
2023-05-10T00:03:18.587Z,3.10
2023-05-10T00:05:47.289Z,3.20
2023-05-10T00:08:16.097Z,3.30
2023-05-10T00:10:44.739Z,3.10
2023-05-10T00:13:13.654Z,3.30
2023-05-10T00:15:42.820Z,3.70
2023-05-10T00:18:11.562Z,4.00
2023-05-10T00:20:40.245Z,4.30
2023-05-10T00:23:08.874Z,4.00
2023-05-10T00:25:37.529Z,3.90
2023-05-10T00:28:06.208Z,4.00
2023-05-10T00:30:34.885Z,4.70
2023-05-10T00:33:04.432Z,4.20
2023-05-10T00:35:33.142Z,4.70
2023-05-10T00:38:01.793Z,4.60
2023-05-10T00:40:31.604Z,4.10
2023-05-10T00:43:01.517Z,5.00
2023-05-10T00:45:33.410Z,5.20
2023-05-10T00:48:03.722Z,4.40
2023-05-10T00:50:33.801Z,4.50
2023-05-10T00:53:03.728Z,4.20
2023-05-10T00:55:32.598Z,4.90
2023-05-10T00:58:01.364Z,4.60
2023-05-10T01:00:30.641Z,4.60
2023-05-10T01:02:59.589Z,4.90
2023-05-10T01:05:28.544Z,4.80
2023-05-10T01:07:57.449Z,4.80
2023-05-10T01:10:26.562Z,5.90
2023-05-10T01:12:55.849Z,4.40
2023-05-10T01:15:24.899Z,5.00
2023-05-10T01:17:55.194Z,4.70
2023-05-10T01:20:25.127Z,4.40
2023-05-10T01:23:21.931Z,4.90
2023-05-10T01:25:59.755Z,4.40
2023-05-10T01:28:32.098Z,4.80
2023-05-10T01:31:28.261Z,4.60
2023-05-10T01:34:02.037Z,4.50
2023-05-10T01:36:41.630Z,4.80
2023-05-10T01:39:18.246Z,4.60
2023-05-10T01:42:14.303Z,4.60
2023-05-10T01:45:13.579Z,4.60
2023-05-10T01:47:50.211Z,4.60
2023-05-10T01:50:26.446Z,4.20
2023-05-10T01:53:00.115Z,4.50
2023-05-10T01:55:33.242Z,4.70
2023-05-10T01:58:11.041Z,5.10
2023-05-10T02:00:44.693Z,4.30
2023-05-10T02:03:16.133Z,4.60
2023-05-10T02:05:47.709Z,4.30
2023-05-10T02:08:18.543Z,4.50
2023-05-10T02:10:48.778Z,4.70
2023-05-10T02:13:19.178Z,5.30
2023-05-10T02:15:49.748Z,5.10
2023-05-10T02:18:19.453Z,4.90
2023-05-10T02:20:48.757Z,5.00
2023-05-10T02:23:18.474Z,4.80
2023-05-10T02:25:49.393Z,4.90
2023-05-10T02:28:19.277Z,4.80
2023-05-10T02:30:48.526Z,4.30
2023-05-10T02:33:18.268Z,4.80
2023-05-10T02:35:47.976Z,5.20
2023-05-10T02:38:17.592Z,4.50
2023-05-10T02:40:48.682Z,4.60
2023-05-10T02:43:19.382Z,5.00
2023-05-10T02:45:49.162Z,5.10
2023-05-10T02:48:18.265Z,4.80
2023-05-10T02:50:52.408Z,4.70
2023-05-10T02:53:24.698Z,5.10
2023-05-10T02:55:56.756Z,5.00
2023-05-10T02:58:26.431Z,4.70
2023-05-10T03:00:55.161Z,4.60
2023-05-10T03:03:23.807Z,4.60
2023-05-10T03:05:54.822Z,5.00
2023-05-10T03:08:24.825Z,5.10
2023-05-10T03:11:07.563Z,4.50
2023-05-10T03:14:26.464Z,4.70
2023-05-10T03:17:08.195Z,4.10
2023-05-10T03:19:56.627Z,4.60
2023-05-10T03:22:41.884Z,4.40
2023-05-10T03:25:13.297Z,3.50
2023-05-10T03:27:44.354Z,4.60
2023-05-10T03:30:14.465Z,4.40
2023-05-10T03:32:43.421Z,4.70
2023-05-10T03:35:14.390Z,3.80
2023-05-10T03:37:43.089Z,3.90
2023-05-10T03:40:12.226Z,4.50
2023-05-10T03:42:40.920Z,3.80
2023-05-10T03:45:10.731Z,4.30
2023-05-10T03:47:39.480Z,4.80
2023-05-10T03:50:08.791Z,3.80
2023-05-10T03:52:39.979Z,4.50
2023-05-10T03:55:08.912Z,3.90
2023-05-10T03:57:37.587Z,4.90
2023-05-10T04:00:07.105Z,4.70
2023-05-10T04:02:35.893Z,4.30
2023-05-10T04:05:05.330Z,4.30
2023-05-10T04:07:33.997Z,4.90
2023-05-10T04:10:02.866Z,4.70
2023-05-10T04:12:31.669Z,4.90
2023-05-10T04:15:00.357Z,4.30
2023-05-10T04:17:29.329Z,4.20
2023-05-10T04:19:58.015Z,4.70
2023-05-10T04:22:26.836Z,4.40
2023-05-10T04:24:55.514Z,4.90
2023-05-10T04:27:24.144Z,4.60
2023-05-10T04:29:52.770Z,3.80
2023-05-10T04:32:21.571Z,4.10
2023-05-10T04:34:51.918Z,3.90
2023-05-10T04:37:22.328Z,3.70
2023-05-10T04:39:51.250Z,4.10
2023-05-10T04:42:19.917Z,3.90
2023-05-10T04:44:48.582Z,4.40
2023-05-10T04:47:17.363Z,4.00
2023-05-10T04:49:46.388Z,3.60
2023-05-10T04:52:16.141Z,3.70
2023-05-10T04:54:44.833Z,3.50
2023-05-10T04:57:13.496Z,3.80
2023-05-10T04:59:42.272Z,3.90
2023-05-10T05:02:10.979Z,3.70
2023-05-10T05:04:39.760Z,2.90
2023-05-10T05:07:08.427Z,2.30
2023-05-10T05:09:37.251Z,3.70
2023-05-10T05:12:06.237Z,3.20
2023-05-10T05:14:34.945Z,2.90
2023-05-10T05:17:03.729Z,3.60
2023-05-10T05:19:32.824Z,3.10
2023-05-10T05:22:01.477Z,2.70
2023-05-10T05:24:30.205Z,3.30
2023-05-10T05:26:58.885Z,3.20
2023-05-10T05:29:27.548Z,3.80
2023-05-10T05:31:56.395Z,3.30
2023-05-10T05:34:25.404Z,3.80
2023-05-10T05:36:54.859Z,2.50
2023-05-10T05:39:23.586Z,3.10
2023-05-10T05:41:52.253Z,3.40
2023-05-10T05:44:20.925Z,3.30
2023-05-10T05:46:49.540Z,2.60
2023-05-10T05:49:18.202Z,2.70
2023-05-10T05:51:46.915Z,2.40
2023-05-10T05:54:15.609Z,3.50
2023-05-10T05:56:45.355Z,3.20
2023-05-10T05:59:14.035Z,3.10
2023-05-10T06:01:42.685Z,2.30
2023-05-10T06:04:11.524Z,3.00
2023-05-10T06:06:40.224Z,3.70
2023-05-10T06:09:09.734Z,3.40
2023-05-10T06:11:38.796Z,3.50
2023-05-10T06:14:08.857Z,2.60
2023-05-10T06:16:37.818Z,2.60
2023-05-10T06:19:06.729Z,2.40
2023-05-10T06:21:35.440Z,3.10
2023-05-10T06:24:04.400Z,3.10
2023-05-10T06:26:34.585Z,2.30
2023-05-10T06:29:03.624Z,2.90
2023-05-10T06:31:32.336Z,2.40
2023-05-10T06:34:01.125Z,2.40
2023-05-10T06:36:29.800Z,2.90
2023-05-10T06:38:58.462Z,3.20
2023-05-10T06:41:27.112Z,2.30
2023-05-10T06:43:55.755Z,1.80
2023-05-10T06:46:24.443Z,2.80
2023-05-10T06:48:53.296Z,2.70
2023-05-10T06:51:22.353Z,1.80
2023-05-10T06:53:51.000Z,4.20
2023-05-10T06:56:22.425Z,1.90
2023-05-10T06:58:51.121Z,2.60
2023-05-10T07:01:20.053Z,2.40
2023-05-10T07:03:48.953Z,2.20
2023-05-10T07:06:29.323Z,2.60
2023-05-10T07:09:02.144Z,2.50
2023-05-10T07:11:30.846Z,2.70
2023-05-10T07:13:59.552Z,3.00
2023-05-10T07:16:28.221Z,2.20
2023-05-10T07:18:56.940Z,2.60
2023-05-10T07:21:25.823Z,2.30
2023-05-10T07:23:54.549Z,2.60
2023-05-10T07:26:23.192Z,2.70
2023-05-10T07:28:51.868Z,2.20
2023-05-10T07:31:20.640Z,2.70
2023-05-10T07:33:49.320Z,3.00
2023-05-10T07:36:18.035Z,2.60
2023-05-10T07:38:46.691Z,2.10
2023-05-10T07:41:15.397Z,2.10
2023-05-10T07:43:44.392Z,2.00
2023-05-10T07:46:13.217Z,2.10
2023-05-10T07:48:42.516Z,2.20
2023-05-10T07:51:11.736Z,1.90
2023-05-10T07:53:40.411Z,2.30
2023-05-10T07:56:28.222Z,2.60
2023-05-10T07:58:57.489Z,1.60
2023-05-10T08:01:26.666Z,2.40
2023-05-10T08:03:55.430Z,2.30
2023-05-10T08:06:24.318Z,2.50
2023-05-10T08:08:54.631Z,1.90
2023-05-10T08:11:23.705Z,2.10
2023-05-10T08:13:52.872Z,2.50
2023-05-10T08:16:21.677Z,2.10
2023-05-10T08:18:51.784Z,1.90
2023-05-10T08:21:20.566Z,2.40
2023-05-10T08:23:50.066Z,1.90
2023-05-10T08:26:18.786Z,1.80
2023-05-10T08:28:47.447Z,1.90
2023-05-10T08:31:16.924Z,1.70
2023-05-10T08:33:45.858Z,1.90
2023-05-10T08:36:20.754Z,2.00
2023-05-10T08:38:53.080Z,1.80
2023-05-10T08:41:24.821Z,1.80
2023-05-10T08:43:54.916Z,1.90
2023-05-10T08:46:24.190Z,2.00
2023-05-10T08:48:54.644Z,1.80
2023-05-10T08:51:27.737Z,1.20
2023-05-10T08:53:56.562Z,1.30
2023-05-10T08:56:25.565Z,1.20
2023-05-10T08:58:54.370Z,2.20
2023-05-10T09:01:23.948Z,2.10
2023-05-10T09:03:53.277Z,1.40
2023-05-10T09:06:22.096Z,1.60
2023-05-10T09:08:51.596Z,1.40
2023-05-10T09:11:21.349Z,1.30
2023-05-10T09:13:52.631Z,1.50
2023-05-10T09:16:22.587Z,1.50
2023-05-10T09:18:51.645Z,1.60
2023-05-10T09:21:21.592Z,1.60
2023-05-10T09:23:51.221Z,2.20
2023-05-10T09:26:23.782Z,1.20
2023-05-10T09:28:58.728Z,1.30
2023-05-10T09:31:48.073Z,1.40
2023-05-10T09:34:19.080Z,1.50
2023-05-10T09:36:52.446Z,1.60
2023-05-10T09:39:21.621Z,1.50
2023-05-10T09:41:50.419Z,1.30
2023-05-10T09:44:20.126Z,1.20
2023-05-10T09:46:53.782Z,1.30
2023-05-10T09:49:23.180Z,1.40
2023-05-10T09:52:03.600Z,1.30
2023-05-10T09:54:33.176Z,1.20
2023-05-10T09:57:02.792Z,1.20
2023-05-10T09:59:35.829Z,1.20
2023-05-10T10:02:05.302Z,1.20
2023-05-10T10:04:40.648Z,1.30
2023-05-10T10:07:09.638Z,1.20
2023-05-10T10:09:39.412Z,1.40
2023-05-10T10:12:08.030Z,1.40
2023-05-10T10:14:36.916Z,1.50
2023-05-10T10:17:08.771Z,1.50
2023-05-10T10:19:38.327Z,1.20
2023-05-10T10:22:07.353Z,1.70
2023-05-10T10:24:36.182Z,1.10
2023-05-10T10:27:27.935Z,1.50
2023-05-10T10:30:14.866Z,1.30
2023-05-10T10:33:26.815Z,1.40
2023-05-10T10:36:00.347Z,1.70
2023-05-10T10:39:03.022Z,1.30
2023-05-10T10:41:33.609Z,1.50
2023-05-10T10:44:42.577Z,1.40
2023-05-10T10:47:25.207Z,1.40
2023-05-10T10:50:06.175Z,1.50
2023-05-10T10:52:37.154Z,1.20
2023-05-10T10:55:20.152Z,1.20
2023-05-10T10:57:55.890Z,1.10
2023-05-10T11:00:32.403Z,1.30
2023-05-10T11:03:09.654Z,1.30
2023-05-10T11:05:42.617Z,1.50
2023-05-10T11:08:14.735Z,1.50
2023-05-10T11:11:04.426Z,1.30
2023-05-10T11:13:44.065Z,1.20
2023-05-10T11:16:18.685Z,1.20
2023-05-10T11:19:03.510Z,1.60
2023-05-10T11:21:33.644Z,1.30
2023-05-10T11:24:06.789Z,1.50
2023-05-10T11:26:37.016Z,1.30
2023-05-10T11:29:06.169Z,1.40
2023-05-10T11:31:35.688Z,1.40
2023-05-10T11:34:04.456Z,1.50
2023-05-10T11:36:37.400Z,1.10
2023-05-10T11:39:07.088Z,1.30
2023-05-10T11:41:36.468Z,1.40
2023-05-10T11:44:05.477Z,1.40
2023-05-10T11:46:34.340Z,1.40
2023-05-10T11:49:05.411Z,1.30
2023-05-10T11:51:40.345Z,1.50
2023-05-10T11:54:11.140Z,1.50
2023-05-10T11:56:41.364Z,1.10
2023-05-10T11:59:10.249Z,1.20
2023-05-10T12:01:39.039Z,1.30
2023-05-10T12:04:07.986Z,1.40
2023-05-10T12:06:41.895Z,1.30
2023-05-10T12:09:11.357Z,1.40
2023-05-10T12:11:43.911Z,1.40
2023-05-10T12:14:13.263Z,1.40
2023-05-10T12:16:44.165Z,1.30
2023-05-10T12:19:12.962Z,1.30
2023-05-10T12:21:42.493Z,1.30
2023-05-10T12:24:11.565Z,1.60
2023-05-10T12:29:26.636Z,1.40
2023-05-10T12:32:00.428Z,1.10
2023-05-10T12:34:33.012Z,1.40
2023-05-10T12:37:02.936Z,1.80
2023-05-10T12:39:47.049Z,1.60
2023-05-10T12:42:15.793Z,1.40
2023-05-10T12:44:44.784Z,1.50
2023-05-10T12:47:13.457Z,1.40
2023-05-10T12:49:42.158Z,1.70
2023-05-10T12:52:10.934Z,2.20
2023-05-10T12:54:39.596Z,1.30
2023-05-10T12:57:08.277Z,1.50
2023-05-10T12:59:38.206Z,1.50
2023-05-10T13:02:07.994Z,1.20
2023-05-10T13:04:40.503Z,1.50
2023-05-10T13:07:11.077Z,1.30
2023-05-10T13:09:41.126Z,1.10
2023-05-10T13:12:10.348Z,1.60
2023-05-10T13:14:41.369Z,1.60
2023-05-10T13:17:13.153Z,1.70
2023-05-10T13:19:41.849Z,1.70
2023-05-10T13:22:10.634Z,1.60
2023-05-10T13:24:39.249Z,1.40
2023-05-10T13:27:07.921Z,1.70
2023-05-10T13:29:36.583Z,1.00
2023-05-10T13:32:05.611Z,1.20
2023-05-10T13:34:34.386Z,1.50
2023-05-10T13:37:03.250Z,1.70
2023-05-10T13:39:34.364Z,1.70
2023-05-10T13:42:04.001Z,1.70
2023-05-10T13:44:34.673Z,1.50
2023-05-10T13:47:04.520Z,1.60
2023-05-10T13:49:33.244Z,1.90
2023-05-10T13:52:07.775Z,1.30
2023-05-10T13:54:40.069Z,1.70
2023-05-10T13:57:08.743Z,1.40
2023-05-10T13:59:37.388Z,1.70
2023-05-10T14:02:06.830Z,1.70
2023-05-10T14:04:36.570Z,1.70
2023-05-10T14:07:05.707Z,1.70
2023-05-10T14:09:34.743Z,1.70
2023-05-10T14:12:03.567Z,1.80
2023-05-10T14:14:32.325Z,1.70
2023-05-10T14:17:01.254Z,1.90
2023-05-10T14:19:33.415Z,2.40
2023-05-10T14:22:02.101Z,1.90
2023-05-10T14:24:30.843Z,1.70
2023-05-10T14:26:59.726Z,1.70
2023-05-10T14:29:28.500Z,1.80
2023-05-10T14:31:57.244Z,2.40
2023-05-10T14:34:26.007Z,1.80
2023-05-10T14:36:54.693Z,1.10
2023-05-10T14:39:23.863Z,2.00
2023-05-10T14:41:53.231Z,1.90
2023-05-10T14:44:21.898Z,1.90
2023-05-10T14:46:50.713Z,1.80
2023-05-10T14:49:19.435Z,2.60
2023-05-10T14:51:48.300Z,1.60
2023-05-10T14:54:16.956Z,1.80
2023-05-10T14:56:46.128Z,1.60
2023-05-10T14:59:14.759Z,1.60
2023-05-10T15:01:44.097Z,1.90
2023-05-10T15:04:14.443Z,2.20
2023-05-10T15:06:43.722Z,1.70
2023-05-10T15:09:12.361Z,2.20
2023-05-10T15:11:41.477Z,1.70
2023-05-10T15:14:10.599Z,1.80
2023-05-10T15:16:39.596Z,1.50
2023-05-10T15:19:08.575Z,1.50
2023-05-10T15:21:39.967Z,1.60
2023-05-10T15:24:09.366Z,2.10
2023-05-10T15:26:38.433Z,2.00
2023-05-10T15:29:07.184Z,1.90
2023-05-10T15:31:37.092Z,2.00
2023-05-10T15:34:05.893Z,2.00
2023-05-10T15:36:34.527Z,1.80
2023-05-10T15:39:03.923Z,1.60
2023-05-10T15:41:32.689Z,1.70
2023-05-10T15:44:01.776Z,1.90
2023-05-10T15:46:31.295Z,1.70
2023-05-10T15:49:00.347Z,1.60
2023-05-10T15:51:29.015Z,1.90
2023-05-10T15:54:06.503Z,1.60
2023-05-10T15:56:37.078Z,1.80
2023-05-10T15:59:10.681Z,1.90
2023-05-10T16:01:39.641Z,1.80
2023-05-10T16:04:08.680Z,1.80
2023-05-10T16:06:37.987Z,1.70
2023-05-10T16:09:06.689Z,1.50
2023-05-10T16:11:35.426Z,1.60
2023-05-10T16:14:05.635Z,2.20
2023-05-10T16:16:35.756Z,1.70
2023-05-10T16:19:04.951Z,1.40
2023-05-10T16:21:33.780Z,2.00
2023-05-10T16:24:03.500Z,2.00
2023-05-10T16:26:32.174Z,0.90
2023-05-10T16:29:00.839Z,1.80
2023-05-10T16:31:29.588Z,1.60
2023-05-10T16:33:58.383Z,1.60
2023-05-10T16:36:27.472Z,1.90
2023-05-10T16:38:56.631Z,1.80
2023-05-10T16:41:26.506Z,1.60
2023-05-10T16:43:55.311Z,2.10
2023-05-10T16:46:24.454Z,2.00
2023-05-10T16:48:53.508Z,1.70
2023-05-10T16:51:22.184Z,2.20
2023-05-10T16:53:50.824Z,1.70
2023-05-10T16:56:21.749Z,2.10
2023-05-10T16:58:50.747Z,2.30
2023-05-10T17:01:19.595Z,1.60
2023-05-10T17:03:48.300Z,2.00
2023-05-10T17:06:17.013Z,2.20
2023-05-10T17:08:45.715Z,2.40
2023-05-10T17:11:14.465Z,1.90
2023-05-10T17:13:43.136Z,1.90
2023-05-10T17:16:12.570Z,2.10
2023-05-10T17:18:42.650Z,1.60
2023-05-10T17:21:11.466Z,1.30
2023-05-10T17:23:40.404Z,2.00
2023-05-10T17:26:09.250Z,1.60
2023-05-10T17:28:38.115Z,1.80
2023-05-10T17:31:06.921Z,1.80
2023-05-10T17:33:35.650Z,2.00
2023-05-10T17:36:04.399Z,1.90
2023-05-10T17:38:33.068Z,1.00
2023-05-10T17:41:02.330Z,1.70
2023-05-10T17:43:31.076Z,1.90
2023-05-10T17:45:59.952Z,1.80
2023-05-10T17:48:28.685Z,2.10
2023-05-10T17:50:57.554Z,2.20
2023-05-10T17:53:26.220Z,1.60
2023-05-10T17:55:58.894Z,1.70
2023-05-10T17:58:28.799Z,1.90
2023-05-10T18:00:57.646Z,1.50
2023-05-10T18:03:26.965Z,1.90
2023-05-10T18:05:55.907Z,1.80
2023-05-10T18:08:27.321Z,1.90
2023-05-10T18:10:57.097Z,2.30
2023-05-10T18:13:25.882Z,2.50
2023-05-10T18:15:54.722Z,2.30
2023-05-10T18:18:23.486Z,1.80
2023-05-10T18:20:57.219Z,1.80
2023-05-10T18:23:26.352Z,2.60
2023-05-10T18:25:55.088Z,1.70
2023-05-10T18:28:24.585Z,1.80
2023-05-10T18:30:53.383Z,1.90
2023-05-10T18:33:22.164Z,2.20
2023-05-10T18:35:50.965Z,2.40
2023-05-10T18:38:20.108Z,2.70
2023-05-10T18:40:48.811Z,2.20
2023-05-10T18:43:17.456Z,2.50
2023-05-10T18:45:46.319Z,2.60
2023-05-10T18:48:15.012Z,2.60
2023-05-10T18:50:43.712Z,2.90
2023-05-10T18:53:12.345Z,3.30
2023-05-10T18:55:41.264Z,4.20
2023-05-10T18:58:09.963Z,3.30
2023-05-10T19:00:38.603Z,3.10
2023-05-10T19:03:07.896Z,2.30
2023-05-10T19:05:36.594Z,2.80
2023-05-10T19:08:05.308Z,3.70
2023-05-10T19:10:33.996Z,3.20
2023-05-10T19:13:02.632Z,2.80
2023-05-10T19:15:31.693Z,2.80
2023-05-10T19:18:00.537Z,2.50
2023-05-10T19:20:29.702Z,3.30
2023-05-10T19:23:09.889Z,3.20
2023-05-10T19:25:39.743Z,2.50
2023-05-10T19:28:10.950Z,3.50
2023-05-10T19:30:39.646Z,3.70
2023-05-10T19:33:10.179Z,3.60
2023-05-10T19:35:39.860Z,3.10
2023-05-10T19:38:08.750Z,3.30
2023-05-10T19:40:37.510Z,2.90
2023-05-10T19:43:06.245Z,3.80
2023-05-10T19:45:35.511Z,2.30
2023-05-10T19:48:04.318Z,3.50
2023-05-10T19:50:33.083Z,2.80
2023-05-10T19:53:01.969Z,3.20
2023-05-10T19:55:32.145Z,2.60
2023-05-10T19:58:00.864Z,2.70
2023-05-10T20:00:29.691Z,2.60
2023-05-10T20:02:58.762Z,2.80
2023-05-10T20:05:29.365Z,2.60
2023-05-10T20:07:58.065Z,2.80
2023-05-10T20:10:27.227Z,2.00
2023-05-10T20:12:56.117Z,2.30
2023-05-10T20:15:24.854Z,2.70
2023-05-10T20:17:54.016Z,2.30
2023-05-10T20:20:23.677Z,2.20
2023-05-10T20:22:52.433Z,2.00
2023-05-10T20:25:21.232Z,2.40
2023-05-10T20:27:50.963Z,2.40
2023-05-10T20:30:19.997Z,2.50
2023-05-10T20:32:49.152Z,2.30
2023-05-10T20:35:18.059Z,2.40
2023-05-10T20:37:48.378Z,2.70
2023-05-10T20:40:17.588Z,2.90
2023-05-10T20:42:47.539Z,1.70
2023-05-10T20:45:16.394Z,2.40
2023-05-10T20:47:45.107Z,2.80
2023-05-10T20:50:13.768Z,2.30
2023-05-10T20:52:42.524Z,2.50
2023-05-10T20:55:11.292Z,2.00
2023-05-10T20:57:40.034Z,2.30
2023-05-10T21:00:10.448Z,3.00
2023-05-10T21:02:43.368Z,2.50
2023-05-10T21:05:12.334Z,2.90
2023-05-10T21:07:41.047Z,3.00
2023-05-10T21:10:11.472Z,2.60
2023-05-10T21:12:40.154Z,2.70
2023-05-10T21:15:09.364Z,2.20
2023-05-10T21:17:38.029Z,3.30
2023-05-10T21:20:07.647Z,3.10
2023-05-10T21:22:36.490Z,3.00
2023-05-10T21:25:06.304Z,3.00
2023-05-10T21:27:35.168Z,2.70
2023-05-10T21:30:04.207Z,3.10
2023-05-10T21:32:33.015Z,3.30
2023-05-10T21:35:01.781Z,3.10
2023-05-10T21:37:30.448Z,3.10
2023-05-10T21:39:59.139Z,3.40
2023-05-10T21:42:27.794Z,3.30
2023-05-10T21:44:56.846Z,2.60
2023-05-10T21:47:25.550Z,3.00
2023-05-10T21:49:54.265Z,3.00
2023-05-10T21:52:22.930Z,3.20
2023-05-10T21:54:51.598Z,3.10
2023-05-10T21:57:21.497Z,3.10
2023-05-10T21:59:50.208Z,3.30
2023-05-10T22:02:18.971Z,2.70
2023-05-10T22:04:47.869Z,3.00
2023-05-10T22:07:17.000Z,2.80
2023-05-10T22:09:46.029Z,3.00
2023-05-10T22:12:14.742Z,3.00
2023-05-10T22:14:43.476Z,2.60
2023-05-10T22:17:12.293Z,2.00
2023-05-10T22:19:41.135Z,2.90
2023-05-10T22:22:09.872Z,3.10
2023-05-10T22:24:38.641Z,2.80
2023-05-10T22:27:07.360Z,2.70
2023-05-10T22:29:36.210Z,3.00
2023-05-10T22:32:06.365Z,3.20
2023-05-10T22:34:38.658Z,3.30
2023-05-10T22:37:07.805Z,3.10
2023-05-10T22:39:36.463Z,2.80
2023-05-10T22:42:05.174Z,3.00
2023-05-10T22:44:33.850Z,3.60
2023-05-10T22:47:02.687Z,3.80
2023-05-10T22:49:32.403Z,3.00
2023-05-10T22:52:01.495Z,3.40
2023-05-10T22:54:30.271Z,3.50
2023-05-10T22:56:59.091Z,3.20
2023-05-10T22:59:28.721Z,3.70
2023-05-10T23:01:57.495Z,3.50
2023-05-10T23:04:26.337Z,3.60
2023-05-10T23:06:55.093Z,3.60
2023-05-10T23:09:23.749Z,3.50
2023-05-10T23:11:52.443Z,3.60
2023-05-10T23:14:21.119Z,3.70
2023-05-10T23:16:49.813Z,1.70
2023-05-10T23:19:19.148Z,3.50
2023-05-10T23:21:47.791Z,3.30
2023-05-10T23:24:16.557Z,3.80
2023-05-10T23:26:46.608Z,3.80
2023-05-10T23:29:15.414Z,4.10
2023-05-10T23:31:46.282Z,3.70
2023-05-10T23:34:15.095Z,4.30
2023-05-10T23:36:43.765Z,4.50
2023-05-10T23:39:12.543Z,4.00
2023-05-10T23:41:41.835Z,3.90
2023-05-10T23:44:10.503Z,4.00
2023-05-10T23:46:39.143Z,4.70
2023-05-10T23:49:07.838Z,4.70
2023-05-10T23:51:36.540Z,4.00
2023-05-10T23:54:05.400Z,4.00
2023-05-10T23:56:34.477Z,4.00
2023-05-10T23:59:03.156Z,3.90
